sensor_id;sensor_type;location;lat;lon;timestamp;temperature;humidity
15765;DHT22;7983;50.744;7.086;2024-02-15T00:02:05;14.00;99.90
15765;DHT22;7983;50.744;7.086;2024-02-15T00:04:31;14.10;99.90
15765;DHT22;7983;50.744;7.086;2024-02-15T00:07:01;14.10;99.90
15765;DHT22;7983;50.744;7.086;2024-02-15T00:09:29;14.10;99.90
15765;DHT22;7983;50.744;7.086;2024-02-15T00:11:56;14.10;99.90
15765;DHT22;7983;50.744;7.086;2024-02-15T00:14:27;14.10;99.90
15765;DHT22;7983;50.744;7.086;2024-02-15T00:16:59;14.10;99.90
15765;DHT22;7983;50.744;7.086;2024-02-15T00:19:25;14.20;99.90
15765;DHT22;7983;50.744;7.086;2024-02-15T00:21:55;14.20;99.90
15765;DHT22;7983;50.744;7.086;2024-02-15T00:24:22;14.20;99.90
15765;DHT22;7983;50.744;7.086;2024-02-15T00:26:50;14.20;99.90
15765;DHT22;7983;50.744;7.086;2024-02-15T00:29:16;14.20;99.90
15765;DHT22;7983;50.744;7.086;2024-02-15T00:31:41;14.20;99.90
15765;DHT22;7983;50.744;7.086;2024-02-15T00:34:07;14.20;99.90
15765;DHT22;7983;50.744;7.086;2024-02-15T00:36:34;14.20;99.90
15765;DHT22;7983;50.744;7.086;2024-02-15T00:39:00;14.20;99.90
15765;DHT22;7983;50.744;7.086;2024-02-15T00:41:28;14.30;99.90
15765;DHT22;7983;50.744;7.086;2024-02-15T00:43:53;14.30;99.90
15765;DHT22;7983;50.744;7.086;2024-02-15T00:46:19;14.30;99.90
15765;DHT22;7983;50.744;7.086;2024-02-15T00:48:45;14.30;99.90
15765;DHT22;7983;50.744;7.086;2024-02-15T00:51:10;14.30;99.90
15765;DHT22;7983;50.744;7.086;2024-02-15T00:53:36;14.30;99.90
15765;DHT22;7983;50.744;7.086;2024-02-15T00:56:02;14.30;99.90
15765;DHT22;7983;50.744;7.086;2024-02-15T00:58:30;14.30;99.90
15765;DHT22;7983;50.744;7.086;2024-02-15T01:00:58;14.30;99.90
15765;DHT22;7983;50.744;7.086;2024-02-15T01:03:27;14.30;99.90
15765;DHT22;7983;50.744;7.086;2024-02-15T01:05:55;14.30;99.90
15765;DHT22;7983;50.744;7.086;2024-02-15T01:08:20;14.30;99.90
15765;DHT22;7983;50.744;7.086;2024-02-15T01:10:48;14.30;99.90
15765;DHT22;7983;50.744;7.086;2024-02-15T01:13:18;14.30;99.90
15765;DHT22;7983;50.744;7.086;2024-02-15T01:15:43;14.30;99.90
15765;DHT22;7983;50.744;7.086;2024-02-15T01:18:11;14.30;99.90
15765;DHT22;7983;50.744;7.086;2024-02-15T01:20:37;14.30;99.90
15765;DHT22;7983;50.744;7.086;2024-02-15T01:23:05;14.30;99.90
15765;DHT22;7983;50.744;7.086;2024-02-15T01:25:33;14.30;99.90
15765;DHT22;7983;50.744;7.086;2024-02-15T01:27:59;14.30;99.90
15765;DHT22;7983;50.744;7.086;2024-02-15T01:30:30;14.30;99.90
15765;DHT22;7983;50.744;7.086;2024-02-15T01:32:57;14.20;99.90
15765;DHT22;7983;50.744;7.086;2024-02-15T01:35:25;14.20;99.90
15765;DHT22;7983;50.744;7.086;2024-02-15T01:37:53;14.20;99.90
15765;DHT22;7983;50.744;7.086;2024-02-15T01:40:19;14.20;99.90
15765;DHT22;7983;50.744;7.086;2024-02-15T01:42:45;14.10;99.90
15765;DHT22;7983;50.744;7.086;2024-02-15T01:45:13;14.10;99.90
15765;DHT22;7983;50.744;7.086;2024-02-15T01:47:39;14.10;99.90
15765;DHT22;7983;50.744;7.086;2024-02-15T01:50:10;14.10;99.90
15765;DHT22;7983;50.744;7.086;2024-02-15T01:52:39;14.10;99.90
15765;DHT22;7983;50.744;7.086;2024-02-15T01:55:08;14.10;99.90
15765;DHT22;7983;50.744;7.086;2024-02-15T01:57:36;14.10;99.90
15765;DHT22;7983;50.744;7.086;2024-02-15T02:00:08;14.10;99.90
15765;DHT22;7983;50.744;7.086;2024-02-15T02:02:39;14.10;99.90
15765;DHT22;7983;50.744;7.086;2024-02-15T02:05:08;14.00;99.90
15765;DHT22;7983;50.744;7.086;2024-02-15T02:07:34;14.00;99.90
15765;DHT22;7983;50.744;7.086;2024-02-15T02:09:59;14.00;99.90
15765;DHT22;7983;50.744;7.086;2024-02-15T02:12:25;14.10;99.90
15765;DHT22;7983;50.744;7.086;2024-02-15T02:14:53;14.10;99.90
15765;DHT22;7983;50.744;7.086;2024-02-15T02:17:19;14.10;99.90
15765;DHT22;7983;50.744;7.086;2024-02-15T02:19:45;14.10;99.90
15765;DHT22;7983;50.744;7.086;2024-02-15T02:22:16;14.10;99.90
15765;DHT22;7983;50.744;7.086;2024-02-15T02:25:06;14.20;99.90
15765;DHT22;7983;50.744;7.086;2024-02-15T02:27:34;14.20;99.90
15765;DHT22;7983;50.744;7.086;2024-02-15T02:30:00;14.20;99.90
15765;DHT22;7983;50.744;7.086;2024-02-15T02:32:26;14.30;99.90
15765;DHT22;7983;50.744;7.086;2024-02-15T02:34:56;14.30;99.90
15765;DHT22;7983;50.744;7.086;2024-02-15T02:37:25;14.40;99.90
15765;DHT22;7983;50.744;7.086;2024-02-15T02:39:51;14.30;99.90
15765;DHT22;7983;50.744;7.086;2024-02-15T02:42:17;14.40;99.90
15765;DHT22;7983;50.744;7.086;2024-02-15T02:44:43;14.40;99.90
15765;DHT22;7983;50.744;7.086;2024-02-15T02:47:09;14.40;99.90
15765;DHT22;7983;50.744;7.086;2024-02-15T02:49:37;14.40;99.90
15765;DHT22;7983;50.744;7.086;2024-02-15T02:52:06;14.50;99.90
15765;DHT22;7983;50.744;7.086;2024-02-15T02:54:31;14.50;99.90
15765;DHT22;7983;50.744;7.086;2024-02-15T02:56:58;14.50;99.90
15765;DHT22;7983;50.744;7.086;2024-02-15T02:59:28;14.50;99.90
15765;DHT22;7983;50.744;7.086;2024-02-15T03:01:56;14.50;99.90
15765;DHT22;7983;50.744;7.086;2024-02-15T03:04:22;14.50;99.90
15765;DHT22;7983;50.744;7.086;2024-02-15T03:06:48;14.50;99.90
15765;DHT22;7983;50.744;7.086;2024-02-15T03:09:16;14.50;99.90
15765;DHT22;7983;50.744;7.086;2024-02-15T03:11:42;14.50;99.90
15765;DHT22;7983;50.744;7.086;2024-02-15T03:14:10;14.50;99.90
15765;DHT22;7983;50.744;7.086;2024-02-15T03:16:38;14.50;99.90
15765;DHT22;7983;50.744;7.086;2024-02-15T03:19:03;14.50;99.90
15765;DHT22;7983;50.744;7.086;2024-02-15T03:21:30;14.50;99.90
15765;DHT22;7983;50.744;7.086;2024-02-15T03:23:55;14.50;99.90
15765;DHT22;7983;50.744;7.086;2024-02-15T03:26:31;14.40;99.90
15765;DHT22;7983;50.744;7.086;2024-02-15T03:29:03;14.40;99.90
15765;DHT22;7983;50.744;7.086;2024-02-15T03:31:28;14.30;99.90
15765;DHT22;7983;50.744;7.086;2024-02-15T03:33:57;14.20;99.90
15765;DHT22;7983;50.744;7.086;2024-02-15T03:36:24;14.10;99.90
15765;DHT22;7983;50.744;7.086;2024-02-15T03:38:50;14.00;99.90
15765;DHT22;7983;50.744;7.086;2024-02-15T03:41:18;13.90;99.90
15765;DHT22;7983;50.744;7.086;2024-02-15T03:43:44;13.90;99.90
15765;DHT22;7983;50.744;7.086;2024-02-15T03:46:09;13.80;99.90
15765;DHT22;7983;50.744;7.086;2024-02-15T03:48:38;13.80;99.90
15765;DHT22;7983;50.744;7.086;2024-02-15T03:51:07;13.70;99.90
15765;DHT22;7983;50.744;7.086;2024-02-15T03:53:32;13.70;99.90
15765;DHT22;7983;50.744;7.086;2024-02-15T03:55:59;13.70;99.90
15765;DHT22;7983;50.744;7.086;2024-02-15T03:58:25;13.70;99.90
15765;DHT22;7983;50.744;7.086;2024-02-15T04:00:54;13.60;99.90
15765;DHT22;7983;50.744;7.086;2024-02-15T04:03:21;13.60;99.90
15765;DHT22;7983;50.744;7.086;2024-02-15T04:05:49;13.60;99.90
15765;DHT22;7983;50.744;7.086;2024-02-15T04:08:14;13.60;99.90
15765;DHT22;7983;50.744;7.086;2024-02-15T04:10:42;13.60;99.90
15765;DHT22;7983;50.744;7.086;2024-02-15T04:13:10;13.60;99.90
15765;DHT22;7983;50.744;7.086;2024-02-15T04:15:35;13.60;99.90
15765;DHT22;7983;50.744;7.086;2024-02-15T04:18:02;13.60;99.90
15765;DHT22;7983;50.744;7.086;2024-02-15T04:20:28;13.60;99.90
15765;DHT22;7983;50.744;7.086;2024-02-15T04:22:57;13.60;99.90
15765;DHT22;7983;50.744;7.086;2024-02-15T04:25:25;13.60;99.90
15765;DHT22;7983;50.744;7.086;2024-02-15T04:27:55;13.60;99.90
15765;DHT22;7983;50.744;7.086;2024-02-15T04:30:23;13.60;99.90
15765;DHT22;7983;50.744;7.086;2024-02-15T04:32:49;13.60;99.90
15765;DHT22;7983;50.744;7.086;2024-02-15T04:35:15;13.60;99.90
15765;DHT22;7983;50.744;7.086;2024-02-15T04:37:41;13.60;99.90
15765;DHT22;7983;50.744;7.086;2024-02-15T04:40:09;13.60;99.90
15765;DHT22;7983;50.744;7.086;2024-02-15T04:42:38;13.60;99.90
15765;DHT22;7983;50.744;7.086;2024-02-15T04:45:09;13.60;99.90
15765;DHT22;7983;50.744;7.086;2024-02-15T04:47:39;13.60;99.90
15765;DHT22;7983;50.744;7.086;2024-02-15T04:50:06;13.60;99.90
15765;DHT22;7983;50.744;7.086;2024-02-15T04:52:35;13.60;99.90
15765;DHT22;7983;50.744;7.086;2024-02-15T04:55:01;13.60;99.90
15765;DHT22;7983;50.744;7.086;2024-02-15T04:57:30;13.60;99.90
15765;DHT22;7983;50.744;7.086;2024-02-15T04:59:56;13.60;99.90
15765;DHT22;7983;50.744;7.086;2024-02-15T05:02:22;13.60;99.90
15765;DHT22;7983;50.744;7.086;2024-02-15T05:04:53;13.60;99.90
15765;DHT22;7983;50.744;7.086;2024-02-15T05:07:22;13.60;99.90
15765;DHT22;7983;50.744;7.086;2024-02-15T05:09:50;13.60;99.90
15765;DHT22;7983;50.744;7.086;2024-02-15T05:12:23;13.60;99.90
15765;DHT22;7983;50.744;7.086;2024-02-15T05:14:51;13.60;99.90
15765;DHT22;7983;50.744;7.086;2024-02-15T05:17:19;13.60;99.90
15765;DHT22;7983;50.744;7.086;2024-02-15T05:19:47;13.60;99.90
15765;DHT22;7983;50.744;7.086;2024-02-15T05:22:15;13.60;99.90
15765;DHT22;7983;50.744;7.086;2024-02-15T05:24:43;13.60;99.90
15765;DHT22;7983;50.744;7.086;2024-02-15T05:27:09;13.60;99.90
15765;DHT22;7983;50.744;7.086;2024-02-15T05:29:37;13.60;99.90
15765;DHT22;7983;50.744;7.086;2024-02-15T05:32:05;13.60;99.90
15765;DHT22;7983;50.744;7.086;2024-02-15T05:34:31;13.60;99.90
15765;DHT22;7983;50.744;7.086;2024-02-15T05:36:56;13.60;99.90
15765;DHT22;7983;50.744;7.086;2024-02-15T05:39:22;13.50;99.90
15765;DHT22;7983;50.744;7.086;2024-02-15T05:41:51;13.60;99.90
15765;DHT22;7983;50.744;7.086;2024-02-15T05:44:17;13.60;99.90
15765;DHT22;7983;50.744;7.086;2024-02-15T05:46:46;13.60;99.90
15765;DHT22;7983;50.744;7.086;2024-02-15T05:49:12;13.60;99.90
15765;DHT22;7983;50.744;7.086;2024-02-15T05:51:43;13.60;99.90
15765;DHT22;7983;50.744;7.086;2024-02-15T05:54:08;13.60;99.90
15765;DHT22;7983;50.744;7.086;2024-02-15T05:56:34;13.60;99.90
15765;DHT22;7983;50.744;7.086;2024-02-15T05:59:00;13.60;99.90
15765;DHT22;7983;50.744;7.086;2024-02-15T06:01:28;13.70;99.90
15765;DHT22;7983;50.744;7.086;2024-02-15T06:03:55;13.70;99.90
15765;DHT22;7983;50.744;7.086;2024-02-15T06:06:23;13.70;99.90
15765;DHT22;7983;50.744;7.086;2024-02-15T06:08:51;13.70;99.90
15765;DHT22;7983;50.744;7.086;2024-02-15T06:11:20;13.70;99.90
15765;DHT22;7983;50.744;7.086;2024-02-15T06:13:46;13.70;99.90
15765;DHT22;7983;50.744;7.086;2024-02-15T06:16:12;13.80;99.90
15765;DHT22;7983;50.744;7.086;2024-02-15T06:18:40;13.80;99.90
15765;DHT22;7983;50.744;7.086;2024-02-15T06:21:05;13.80;99.90
15765;DHT22;7983;50.744;7.086;2024-02-15T06:23:31;13.80;99.90
15765;DHT22;7983;50.744;7.086;2024-02-15T06:25:58;13.90;99.90
15765;DHT22;7983;50.744;7.086;2024-02-15T06:28:28;13.90;99.90
15765;DHT22;7983;50.744;7.086;2024-02-15T06:31:12;13.90;99.90
15765;DHT22;7983;50.744;7.086;2024-02-15T06:33:57;13.90;99.90
15765;DHT22;7983;50.744;7.086;2024-02-15T06:39:33;13.90;99.90
15765;DHT22;7983;50.744;7.086;2024-02-15T06:42:11;13.90;99.90
15765;DHT22;7983;50.744;7.086;2024-02-15T06:44:45;13.90;99.90
15765;DHT22;7983;50.744;7.086;2024-02-15T06:47:14;13.90;99.90
15765;DHT22;7983;50.744;7.086;2024-02-15T06:49:47;13.90;99.90
15765;DHT22;7983;50.744;7.086;2024-02-15T06:52:20;13.90;99.90
15765;DHT22;7983;50.744;7.086;2024-02-15T06:54:45;13.80;99.90
15765;DHT22;7983;50.744;7.086;2024-02-15T06:57:18;13.90;99.90
15765;DHT22;7983;50.744;7.086;2024-02-15T06:59:46;13.90;99.90
15765;DHT22;7983;50.744;7.086;2024-02-15T07:02:14;13.90;99.90
15765;DHT22;7983;50.744;7.086;2024-02-15T07:04:44;13.90;99.90
15765;DHT22;7983;50.744;7.086;2024-02-15T07:07:12;13.90;99.90
15765;DHT22;7983;50.744;7.086;2024-02-15T07:09:40;13.90;99.90
15765;DHT22;7983;50.744;7.086;2024-02-15T07:12:06;13.90;99.90
15765;DHT22;7983;50.744;7.086;2024-02-15T07:14:36;13.90;99.90
15765;DHT22;7983;50.744;7.086;2024-02-15T07:17:07;13.90;99.90
15765;DHT22;7983;50.744;7.086;2024-02-15T07:19:37;13.90;99.90
15765;DHT22;7983;50.744;7.086;2024-02-15T07:22:04;13.90;99.90
15765;DHT22;7983;50.744;7.086;2024-02-15T07:24:29;13.90;99.90
15765;DHT22;7983;50.744;7.086;2024-02-15T07:26:55;13.90;99.90
15765;DHT22;7983;50.744;7.086;2024-02-15T07:29:21;13.90;99.90
15765;DHT22;7983;50.744;7.086;2024-02-15T07:31:49;13.90;99.90
15765;DHT22;7983;50.744;7.086;2024-02-15T07:34:15;13.90;99.90
15765;DHT22;7983;50.744;7.086;2024-02-15T07:36:42;13.90;99.90
15765;DHT22;7983;50.744;7.086;2024-02-15T07:39:08;14.00;99.90
15765;DHT22;7983;50.744;7.086;2024-02-15T07:41:40;14.00;99.90
15765;DHT22;7983;50.744;7.086;2024-02-15T07:44:06;13.90;99.90
15765;DHT22;7983;50.744;7.086;2024-02-15T07:46:32;13.90;99.90
15765;DHT22;7983;50.744;7.086;2024-02-15T07:48:59;13.90;99.90
15765;DHT22;7983;50.744;7.086;2024-02-15T07:51:25;13.90;99.90
15765;DHT22;7983;50.744;7.086;2024-02-15T07:53:52;13.90;99.90
15765;DHT22;7983;50.744;7.086;2024-02-15T07:56:19;13.90;99.90
15765;DHT22;7983;50.744;7.086;2024-02-15T07:58:48;13.90;99.90
15765;DHT22;7983;50.744;7.086;2024-02-15T08:01:18;13.90;99.90
15765;DHT22;7983;50.744;7.086;2024-02-15T08:03:49;13.90;99.90
15765;DHT22;7983;50.744;7.086;2024-02-15T08:06:16;13.90;99.90
15765;DHT22;7983;50.744;7.086;2024-02-15T08:08:44;13.90;99.90
15765;DHT22;7983;50.744;7.086;2024-02-15T08:11:15;13.90;99.90
15765;DHT22;7983;50.744;7.086;2024-02-15T08:13:47;13.90;99.90
15765;DHT22;7983;50.744;7.086;2024-02-15T08:16:19;13.90;99.90
15765;DHT22;7983;50.744;7.086;2024-02-15T08:18:48;13.90;99.90
15765;DHT22;7983;50.744;7.086;2024-02-15T08:21:17;13.90;99.90
15765;DHT22;7983;50.744;7.086;2024-02-15T08:23:43;13.90;99.90
15765;DHT22;7983;50.744;7.086;2024-02-15T08:26:10;14.00;99.90
15765;DHT22;7983;50.744;7.086;2024-02-15T08:28:42;14.00;99.90
15765;DHT22;7983;50.744;7.086;2024-02-15T08:31:09;14.00;99.90
15765;DHT22;7983;50.744;7.086;2024-02-15T08:33:36;14.10;99.90
15765;DHT22;7983;50.744;7.086;2024-02-15T08:36:06;14.10;99.90
15765;DHT22;7983;50.744;7.086;2024-02-15T08:38:38;14.10;99.90
15765;DHT22;7983;50.744;7.086;2024-02-15T08:41:04;14.10;99.90
15765;DHT22;7983;50.744;7.086;2024-02-15T08:43:32;14.20;99.90
15765;DHT22;7983;50.744;7.086;2024-02-15T08:46:01;14.20;99.90
15765;DHT22;7983;50.744;7.086;2024-02-15T08:48:28;14.20;99.90
15765;DHT22;7983;50.744;7.086;2024-02-15T08:50:55;14.20;99.90
15765;DHT22;7983;50.744;7.086;2024-02-15T08:53:21;14.20;99.90
15765;DHT22;7983;50.744;7.086;2024-02-15T08:55:49;14.20;99.90
15765;DHT22;7983;50.744;7.086;2024-02-15T08:58:15;14.20;99.90
15765;DHT22;7983;50.744;7.086;2024-02-15T09:00:40;14.20;99.90
15765;DHT22;7983;50.744;7.086;2024-02-15T09:03:16;14.30;99.90
15765;DHT22;7983;50.744;7.086;2024-02-15T09:05:41;14.30;99.90
15765;DHT22;7983;50.744;7.086;2024-02-15T09:08:07;14.30;99.90
15765;DHT22;7983;50.744;7.086;2024-02-15T09:10:33;14.40;99.90
15765;DHT22;7983;50.744;7.086;2024-02-15T09:12:59;14.30;99.90
15765;DHT22;7983;50.744;7.086;2024-02-15T09:15:24;14.40;99.90
15765;DHT22;7983;50.744;7.086;2024-02-15T09:17:50;14.50;99.90
15765;DHT22;7983;50.744;7.086;2024-02-15T09:20:16;14.50;99.90
15765;DHT22;7983;50.744;7.086;2024-02-15T09:22:48;14.60;99.90
15765;DHT22;7983;50.744;7.086;2024-02-15T09:25:17;14.60;99.90
15765;DHT22;7983;50.744;7.086;2024-02-15T09:27:44;14.70;99.90
15765;DHT22;7983;50.744;7.086;2024-02-15T09:30:12;14.80;99.90
15765;DHT22;7983;50.744;7.086;2024-02-15T09:32:39;14.80;99.90
15765;DHT22;7983;50.744;7.086;2024-02-15T09:35:08;14.90;99.90
15765;DHT22;7983;50.744;7.086;2024-02-15T09:37:38;14.90;99.90
15765;DHT22;7983;50.744;7.086;2024-02-15T09:40:11;15.00;99.90
15765;DHT22;7983;50.744;7.086;2024-02-15T09:42:38;15.00;99.90
15765;DHT22;7983;50.744;7.086;2024-02-15T09:45:07;15.10;99.90
15765;DHT22;7983;50.744;7.086;2024-02-15T09:47:37;15.20;99.90
15765;DHT22;7983;50.744;7.086;2024-02-15T09:50:09;15.20;99.90
15765;DHT22;7983;50.744;7.086;2024-02-15T09:52:43;15.30;99.90
15765;DHT22;7983;50.744;7.086;2024-02-15T09:55:13;15.40;99.90
15765;DHT22;7983;50.744;7.086;2024-02-15T09:57:41;15.60;99.90
15765;DHT22;7983;50.744;7.086;2024-02-15T10:00:08;15.70;99.90
15765;DHT22;7983;50.744;7.086;2024-02-15T10:02:35;15.80;99.90
15765;DHT22;7983;50.744;7.086;2024-02-15T10:05:05;16.00;99.90
15765;DHT22;7983;50.744;7.086;2024-02-15T10:07:30;16.10;99.90
15765;DHT22;7983;50.744;7.086;2024-02-15T10:10:17;16.10;99.90
15765;DHT22;7983;50.744;7.086;2024-02-15T10:12:51;16.20;99.90
15765;DHT22;7983;50.744;7.086;2024-02-15T10:15:40;16.20;99.90
15765;DHT22;7983;50.744;7.086;2024-02-15T10:18:10;16.30;99.90
15765;DHT22;7983;50.744;7.086;2024-02-15T10:20:41;16.30;99.90
15765;DHT22;7983;50.744;7.086;2024-02-15T10:23:16;16.30;99.90
15765;DHT22;7983;50.744;7.086;2024-02-15T10:25:43;16.30;99.90
15765;DHT22;7983;50.744;7.086;2024-02-15T10:28:10;16.30;99.90
15765;DHT22;7983;50.744;7.086;2024-02-15T10:30:42;16.40;99.90
15765;DHT22;7983;50.744;7.086;2024-02-15T10:33:27;16.30;99.90
15765;DHT22;7983;50.744;7.086;2024-02-15T10:36:06;16.30;99.90
15765;DHT22;7983;50.744;7.086;2024-02-15T10:38:33;16.30;99.90
15765;DHT22;7983;50.744;7.086;2024-02-15T10:41:06;16.30;99.90
15765;DHT22;7983;50.744;7.086;2024-02-15T10:43:36;16.40;99.90
15765;DHT22;7983;50.744;7.086;2024-02-15T10:46:05;16.40;99.90
15765;DHT22;7983;50.744;7.086;2024-02-15T10:48:35;16.40;99.90
15765;DHT22;7983;50.744;7.086;2024-02-15T10:51:04;16.40;99.90
15765;DHT22;7983;50.744;7.086;2024-02-15T10:53:34;16.40;99.90
15765;DHT22;7983;50.744;7.086;2024-02-15T10:58:33;16.50;99.90
15765;DHT22;7983;50.744;7.086;2024-02-15T11:01:01;16.60;99.90
15765;DHT22;7983;50.744;7.086;2024-02-15T11:03:35;16.60;99.90
15765;DHT22;7983;50.744;7.086;2024-02-15T11:06:07;16.70;99.90
15765;DHT22;7983;50.744;7.086;2024-02-15T11:08:37;16.90;99.90
15765;DHT22;7983;50.744;7.086;2024-02-15T11:11:03;17.00;99.90
15765;DHT22;7983;50.744;7.086;2024-02-15T11:13:31;17.20;99.90
15765;DHT22;7983;50.744;7.086;2024-02-15T11:15:56;17.30;99.90
15765;DHT22;7983;50.744;7.086;2024-02-15T11:21:18;17.50;99.90
15765;DHT22;7983;50.744;7.086;2024-02-15T11:23:48;17.60;99.90
15765;DHT22;7983;50.744;7.086;2024-02-15T11:26:52;17.70;99.90
15765;DHT22;7983;50.744;7.086;2024-02-15T11:43:09;17.80;99.90
15765;DHT22;7983;50.744;7.086;2024-02-15T11:45:36;17.80;99.90
15765;DHT22;7983;50.744;7.086;2024-02-15T11:48:11;17.80;99.90
15765;DHT22;7983;50.744;7.086;2024-02-15T11:50:39;17.80;99.90
15765;DHT22;7983;50.744;7.086;2024-02-15T11:53:07;17.70;99.90
15765;DHT22;7983;50.744;7.086;2024-02-15T11:55:35;17.80;99.90
15765;DHT22;7983;50.744;7.086;2024-02-15T11:58:02;17.70;99.90
15765;DHT22;7983;50.744;7.086;2024-02-15T12:00:35;17.80;99.90
15765;DHT22;7983;50.744;7.086;2024-02-15T12:03:25;17.80;99.90
15765;DHT22;7983;50.744;7.086;2024-02-15T12:06:09;17.70;99.90
15765;DHT22;7983;50.744;7.086;2024-02-15T12:08:54;17.70;99.90
15765;DHT22;7983;50.744;7.086;2024-02-15T12:11:39;17.80;99.90
15765;DHT22;7983;50.744;7.086;2024-02-15T12:14:26;17.80;99.90
15765;DHT22;7983;50.744;7.086;2024-02-15T12:17:11;17.80;99.90
15765;DHT22;7983;50.744;7.086;2024-02-15T12:20:01;17.80;99.90
15765;DHT22;7983;50.744;7.086;2024-02-15T12:22:39;17.70;99.90
15765;DHT22;7983;50.744;7.086;2024-02-15T12:25:07;17.80;99.90
15765;DHT22;7983;50.744;7.086;2024-02-15T12:27:43;17.80;99.90
15765;DHT22;7983;50.744;7.086;2024-02-15T12:30:19;17.80;99.90
15765;DHT22;7983;50.744;7.086;2024-02-15T12:32:49;17.80;99.90
15765;DHT22;7983;50.744;7.086;2024-02-15T12:35:22;17.80;99.90
15765;DHT22;7983;50.744;7.086;2024-02-15T12:38:02;17.90;99.90
15765;DHT22;7983;50.744;7.086;2024-02-15T12:40:32;17.90;99.90
15765;DHT22;7983;50.744;7.086;2024-02-15T12:43:00;17.90;99.90
15765;DHT22;7983;50.744;7.086;2024-02-15T12:45:27;18.00;99.90
15765;DHT22;7983;50.744;7.086;2024-02-15T12:47:55;18.10;99.90
15765;DHT22;7983;50.744;7.086;2024-02-15T12:50:27;18.10;99.90
15765;DHT22;7983;50.744;7.086;2024-02-15T12:52:56;18.20;99.90
15765;DHT22;7983;50.744;7.086;2024-02-15T12:55:35;18.30;99.90
15765;DHT22;7983;50.744;7.086;2024-02-15T12:58:06;18.40;99.90
15765;DHT22;7983;50.744;7.086;2024-02-15T13:00:36;18.50;99.90
15765;DHT22;7983;50.744;7.086;2024-02-15T13:03:08;18.60;99.90
15765;DHT22;7983;50.744;7.086;2024-02-15T13:05:36;18.60;99.90
15765;DHT22;7983;50.744;7.086;2024-02-15T13:08:02;18.70;99.90
15765;DHT22;7983;50.744;7.086;2024-02-15T13:10:28;18.70;99.90
15765;DHT22;7983;50.744;7.086;2024-02-15T13:12:55;18.70;99.90
15765;DHT22;7983;50.744;7.086;2024-02-15T13:15:24;18.70;99.90
15765;DHT22;7983;50.744;7.086;2024-02-15T13:17:58;18.60;99.90
15765;DHT22;7983;50.744;7.086;2024-02-15T13:20:27;18.60;99.90
15765;DHT22;7983;50.744;7.086;2024-02-15T13:23:04;18.60;99.90
15765;DHT22;7983;50.744;7.086;2024-02-15T13:25:48;18.60;99.90
15765;DHT22;7983;50.744;7.086;2024-02-15T13:28:14;18.60;99.90
15765;DHT22;7983;50.744;7.086;2024-02-15T13:30:41;18.60;99.90
15765;DHT22;7983;50.744;7.086;2024-02-15T13:33:09;18.50;99.90
15765;DHT22;7983;50.744;7.086;2024-02-15T13:35:34;18.50;99.90
15765;DHT22;7983;50.744;7.086;2024-02-15T13:38:02;18.40;99.90
15765;DHT22;7983;50.744;7.086;2024-02-15T13:40:31;18.40;99.90
15765;DHT22;7983;50.744;7.086;2024-02-15T13:43:00;18.40;99.90
15765;DHT22;7983;50.744;7.086;2024-02-15T13:45:39;18.40;99.90
15765;DHT22;7983;50.744;7.086;2024-02-15T13:48:05;18.30;99.90
15765;DHT22;7983;50.744;7.086;2024-02-15T13:50:33;18.30;99.90
15765;DHT22;7983;50.744;7.086;2024-02-15T13:53:01;18.30;99.90
15765;DHT22;7983;50.744;7.086;2024-02-15T13:55:27;18.30;99.90
15765;DHT22;7983;50.744;7.086;2024-02-15T13:57:56;18.30;99.90
15765;DHT22;7983;50.744;7.086;2024-02-15T14:00:22;18.30;99.90
15765;DHT22;7983;50.744;7.086;2024-02-15T14:02:52;18.30;99.90
15765;DHT22;7983;50.744;7.086;2024-02-15T14:05:28;18.30;99.90
15765;DHT22;7983;50.744;7.086;2024-02-15T14:08:02;18.30;99.90
15765;DHT22;7983;50.744;7.086;2024-02-15T14:10:31;18.30;99.90
15765;DHT22;7983;50.744;7.086;2024-02-15T14:13:02;18.30;99.90
15765;DHT22;7983;50.744;7.086;2024-02-15T14:15:31;18.30;99.90
15765;DHT22;7983;50.744;7.086;2024-02-15T14:18:05;18.30;99.90
15765;DHT22;7983;50.744;7.086;2024-02-15T14:20:38;18.30;99.90
15765;DHT22;7983;50.744;7.086;2024-02-15T14:23:06;18.30;99.90
15765;DHT22;7983;50.744;7.086;2024-02-15T14:25:41;18.30;99.90
15765;DHT22;7983;50.744;7.086;2024-02-15T14:28:07;18.30;99.90
15765;DHT22;7983;50.744;7.086;2024-02-15T14:30:34;18.30;99.90
15765;DHT22;7983;50.744;7.086;2024-02-15T14:33:35;18.30;99.90
15765;DHT22;7983;50.744;7.086;2024-02-15T14:36:01;18.30;99.90
15765;DHT22;7983;50.744;7.086;2024-02-15T14:38:26;18.30;99.90
15765;DHT22;7983;50.744;7.086;2024-02-15T14:40:52;18.30;99.90
15765;DHT22;7983;50.744;7.086;2024-02-15T14:43:22;18.30;99.90
15765;DHT22;7983;50.744;7.086;2024-02-15T14:45:48;18.30;99.90
15765;DHT22;7983;50.744;7.086;2024-02-15T14:48:15;18.30;99.90
15765;DHT22;7983;50.744;7.086;2024-02-15T14:50:43;18.30;99.90
15765;DHT22;7983;50.744;7.086;2024-02-15T14:53:09;18.30;99.90
15765;DHT22;7983;50.744;7.086;2024-02-15T14:55:36;18.20;99.90
15765;DHT22;7983;50.744;7.086;2024-02-15T14:58:07;18.20;99.90
15765;DHT22;7983;50.744;7.086;2024-02-15T15:00:35;18.20;99.90
15765;DHT22;7983;50.744;7.086;2024-02-15T15:03:05;18.20;99.90
15765;DHT22;7983;50.744;7.086;2024-02-15T15:05:31;18.10;99.90
15765;DHT22;7983;50.744;7.086;2024-02-15T15:08:15;18.10;99.90
15765;DHT22;7983;50.744;7.086;2024-02-15T15:10:59;18.10;99.90
15765;DHT22;7983;50.744;7.086;2024-02-15T15:13:43;18.00;99.90
15765;DHT22;7983;50.744;7.086;2024-02-15T15:16:09;18.00;99.90
15765;DHT22;7983;50.744;7.086;2024-02-15T15:18:40;18.00;99.90
15765;DHT22;7983;50.744;7.086;2024-02-15T15:21:05;17.90;99.90
15765;DHT22;7983;50.744;7.086;2024-02-15T15:23:31;17.90;99.90
15765;DHT22;7983;50.744;7.086;2024-02-15T15:26:05;17.90;99.90
15765;DHT22;7983;50.744;7.086;2024-02-15T15:28:40;17.80;99.90
15765;DHT22;7983;50.744;7.086;2024-02-15T15:31:06;17.80;99.90
15765;DHT22;7983;50.744;7.086;2024-02-15T15:33:32;17.80;99.90
15765;DHT22;7983;50.744;7.086;2024-02-15T15:36:01;17.80;99.90
15765;DHT22;7983;50.744;7.086;2024-02-15T15:38:31;17.80;99.90
15765;DHT22;7983;50.744;7.086;2024-02-15T15:40:56;17.80;99.90
15765;DHT22;7983;50.744;7.086;2024-02-15T15:43:23;17.80;99.90
15765;DHT22;7983;50.744;7.086;2024-02-15T15:45:53;17.80;99.90
15765;DHT22;7983;50.744;7.086;2024-02-15T15:48:22;17.80;99.90
15765;DHT22;7983;50.744;7.086;2024-02-15T15:50:48;17.80;99.90
15765;DHT22;7983;50.744;7.086;2024-02-15T15:53:14;17.80;99.90
15765;DHT22;7983;50.744;7.086;2024-02-15T15:55:40;17.80;99.90
15765;DHT22;7983;50.744;7.086;2024-02-15T15:58:06;17.80;99.90
15765;DHT22;7983;50.744;7.086;2024-02-15T16:00:33;17.80;99.90
15765;DHT22;7983;50.744;7.086;2024-02-15T16:03:03;17.80;99.90
15765;DHT22;7983;50.744;7.086;2024-02-15T16:05:30;17.80;99.90
15765;DHT22;7983;50.744;7.086;2024-02-15T16:07:56;17.80;99.90
15765;DHT22;7983;50.744;7.086;2024-02-15T16:10:24;17.80;99.90
15765;DHT22;7983;50.744;7.086;2024-02-15T16:12:52;17.70;99.90
15765;DHT22;7983;50.744;7.086;2024-02-15T16:15:18;17.70;99.90
15765;DHT22;7983;50.744;7.086;2024-02-15T16:17:47;17.60;99.90
15765;DHT22;7983;50.744;7.086;2024-02-15T16:20:15;17.60;99.90